sensor_id;sensor_type;location;lat;lon;timestamp;pressure;altitude;pressure_sealevel;temperature;humidity
62849;BME280;48941;49.516;8.286;2023-05-07T00:00:44;100340.59;;;16.07;78.92
62849;BME280;48941;49.516;8.286;2023-05-07T00:03:11;100333.72;;;16.05;78.90
62849;BME280;48941;49.516;8.286;2023-05-07T00:05:40;100330.34;;;16.03;79.19
62849;BME280;48941;49.516;8.286;2023-05-07T00:08:10;100328.84;;;16.00;78.88
62849;BME280;48941;49.516;8.286;2023-05-07T00:10:38;100320.94;;;15.99;79.14
62849;BME280;48941;49.516;8.286;2023-05-07T00:13:06;100330.00;;;15.98;79.04
62849;BME280;48941;49.516;8.286;2023-05-07T00:15:34;100324.94;;;15.95;79.17
62849;BME280;48941;49.516;8.286;2023-05-07T00:18:01;100323.44;;;15.92;79.22
62849;BME280;48941;49.516;8.286;2023-05-07T00:20:29;100318.22;;;15.90;79.75
62849;BME280;48941;49.516;8.286;2023-05-07T00:22:59;100313.31;;;15.86;79.81
62849;BME280;48941;49.516;8.286;2023-05-07T00:25:28;100320.84;;;15.82;80.12
62849;BME280;48941;49.516;8.286;2023-05-07T00:27:56;100310.25;;;15.81;79.86
62849;BME280;48941;49.516;8.286;2023-05-07T00:30:24;100313.28;;;15.78;80.00
62849;BME280;48941;49.516;8.286;2023-05-07T00:32:51;100317.25;;;15.73;80.62
62849;BME280;48941;49.516;8.286;2023-05-07T00:35:19;100318.25;;;15.72;80.84
62849;BME280;48941;49.516;8.286;2023-05-07T00:37:47;100322.91;;;15.70;80.97
62849;BME280;48941;49.516;8.286;2023-05-07T00:40:15;100313.50;;;15.66;80.66
62849;BME280;48941;49.516;8.286;2023-05-07T00:42:44;100312.81;;;15.64;81.10
62849;BME280;48941;49.516;8.286;2023-05-07T00:45:13;100322.03;;;15.62;80.72
62849;BME280;48941;49.516;8.286;2023-05-07T00:47:41;100316.81;;;15.60;81.25
62849;BME280;48941;49.516;8.286;2023-05-07T00:50:09;100304.72;;;15.56;81.34
62849;BME280;48941;49.516;8.286;2023-05-07T00:52:39;100308.53;;;15.53;81.42
62849;BME280;48941;49.516;8.286;2023-05-07T00:55:08;100310.53;;;15.51;81.58
62849;BME280;48941;49.516;8.286;2023-05-07T00:57:36;100301.97;;;15.48;81.44
62849;BME280;48941;49.516;8.286;2023-05-07T01:00:09;100306.94;;;15.43;81.77
62849;BME280;48941;49.516;8.286;2023-05-07T01:02:40;100295.00;;;15.37;81.89
62849;BME280;48941;49.516;8.286;2023-05-07T01:05:09;100293.63;;;15.33;82.18
62849;BME280;48941;49.516;8.286;2023-05-07T01:07:40;100295.97;;;15.28;82.32
62849;BME280;48941;49.516;8.286;2023-05-07T01:10:09;100295.28;;;15.26;82.32
62849;BME280;48941;49.516;8.286;2023-05-07T01:12:39;100299.78;;;15.25;82.28
62849;BME280;48941;49.516;8.286;2023-05-07T01:15:09;100304.78;;;15.20;82.40
62849;BME280;48941;49.516;8.286;2023-05-07T01:17:39;100303.56;;;15.14;82.94
62849;BME280;48941;49.516;8.286;2023-05-07T01:20:09;100300.47;;;15.09;83.19
62849;BME280;48941;49.516;8.286;2023-05-07T01:22:40;100303.63;;;15.05;83.26
62849;BME280;48941;49.516;8.286;2023-05-07T01:25:08;100301.09;;;15.03;83.06
62849;BME280;48941;49.516;8.286;2023-05-07T01:27:36;100290.38;;;15.03;83.26
62849;BME280;48941;49.516;8.286;2023-05-07T01:30:05;100282.50;;;15.02;83.19
62849;BME280;48941;49.516;8.286;2023-05-07T01:32:36;100282.66;;;15.00;83.42
62849;BME280;48941;49.516;8.286;2023-05-07T01:35:07;100285.63;;;14.97;83.44
62849;BME280;48941;49.516;8.286;2023-05-07T01:37:37;100289.31;;;14.96;83.85
62849;BME280;48941;49.516;8.286;2023-05-07T01:40:07;100294.13;;;14.92;83.63
62849;BME280;48941;49.516;8.286;2023-05-07T01:42:36;100295.28;;;14.90;83.45
62849;BME280;48941;49.516;8.286;2023-05-07T01:45:05;100293.75;;;14.87;83.88
62849;BME280;48941;49.516;8.286;2023-05-07T01:47:33;100293.22;;;14.84;83.84
62849;BME280;48941;49.516;8.286;2023-05-07T01:50:01;100300.72;;;14.80;84.09
62849;BME280;48941;49.516;8.286;2023-05-07T01:52:29;100297.34;;;14.78;84.31
62849;BME280;48941;49.516;8.286;2023-05-07T01:54:57;100295.66;;;14.77;84.22
62849;BME280;48941;49.516;8.286;2023-05-07T01:57:26;100294.00;;;14.76;84.31
62849;BME280;48941;49.516;8.286;2023-05-07T01:59:54;100298.81;;;14.72;84.22
62849;BME280;48941;49.516;8.286;2023-05-07T02:02:22;100288.22;;;14.71;84.38
62849;BME280;48941;49.516;8.286;2023-05-07T02:04:50;100293.91;;;14.68;84.61
62849;BME280;48941;49.516;8.286;2023-05-07T02:07:18;100295.91;;;14.66;84.43
62849;BME280;48941;49.516;8.286;2023-05-07T02:09:46;100298.72;;;14.64;84.58
62849;BME280;48941;49.516;8.286;2023-05-07T02:12:14;100298.88;;;14.63;84.54
62849;BME280;48941;49.516;8.286;2023-05-07T02:14:43;100302.53;;;14.62;84.77
62849;BME280;48941;49.516;8.286;2023-05-07T02:17:11;100300.16;;;14.59;84.64
62849;BME280;48941;49.516;8.286;2023-05-07T02:19:38;100309.19;;;14.58;85.09
62849;BME280;48941;49.516;8.286;2023-05-07T02:22:06;100301.44;;;14.54;84.85
62849;BME280;48941;49.516;8.286;2023-05-07T02:24:34;100298.06;;;14.52;84.57
62849;BME280;48941;49.516;8.286;2023-05-07T02:27:02;100305.28;;;14.52;84.76
62849;BME280;48941;49.516;8.286;2023-05-07T02:29:30;100304.56;;;14.50;85.00
62849;BME280;48941;49.516;8.286;2023-05-07T02:31:59;100307.41;;;14.48;85.16
62849;BME280;48941;49.516;8.286;2023-05-07T02:34:27;100305.69;;;14.47;84.78
62849;BME280;48941;49.516;8.286;2023-05-07T02:36:55;100314.75;;;14.46;85.02
62849;BME280;48941;49.516;8.286;2023-05-07T02:39:23;100310.69;;;14.42;85.21
62849;BME280;48941;49.516;8.286;2023-05-07T02:41:51;100305.75;;;14.38;85.59
62849;BME280;48941;49.516;8.286;2023-05-07T02:44:19;100309.44;;;14.37;85.68
62849;BME280;48941;49.516;8.286;2023-05-07T02:46:46;100301.84;;;14.32;85.94
62849;BME280;48941;49.516;8.286;2023-05-07T02:49:15;100296.50;;;14.32;85.75
62849;BME280;48941;49.516;8.286;2023-05-07T02:51:43;100302.69;;;14.32;86.04
62849;BME280;48941;49.516;8.286;2023-05-07T02:54:11;100300.47;;;14.28;85.80
62849;BME280;48941;49.516;8.286;2023-05-07T02:56:39;100305.81;;;14.28;85.94
62849;BME280;48941;49.516;8.286;2023-05-07T02:59:07;100309.47;;;14.27;86.03
62849;BME280;48941;49.516;8.286;2023-05-07T03:01:34;100311.59;;;14.23;86.32
62849;BME280;48941;49.516;8.286;2023-05-07T03:04:02;100309.06;;;14.22;86.11
62849;BME280;48941;49.516;8.286;2023-05-07T03:06:32;100303.88;;;14.20;86.25
62849;BME280;48941;49.516;8.286;2023-05-07T03:08:59;100302.19;;;14.19;86.49
62849;BME280;48941;49.516;8.286;2023-05-07T03:11:27;100294.47;;;14.16;86.82
62849;BME280;48941;49.516;8.286;2023-05-07T03:13:55;100290.22;;;14.13;86.92
62849;BME280;48941;49.516;8.286;2023-05-07T03:16:23;100291.09;;;14.14;87.00
62849;BME280;48941;49.516;8.286;2023-05-07T03:18:51;100279.69;;;14.12;86.97
62849;BME280;48941;49.516;8.286;2023-05-07T03:21:19;100279.00;;;14.10;86.70
62849;BME280;48941;49.516;8.286;2023-05-07T03:23:48;100280.09;;;14.07;86.99
62849;BME280;48941;49.516;8.286;2023-05-07T03:26:16;100274.06;;;14.05;87.20
62849;BME280;48941;49.516;8.286;2023-05-07T03:28:43;100274.38;;;14.02;87.45
62849;BME280;48941;49.516;8.286;2023-05-07T03:31:11;100268.31;;;14.00;87.59
62849;BME280;48941;49.516;8.286;2023-05-07T03:33:51;100267.78;;;13.97;87.43
62849;BME280;48941;49.516;8.286;2023-05-07T03:36:20;100278.47;;;13.97;87.68
62849;BME280;48941;49.516;8.286;2023-05-07T03:38:49;100269.88;;;13.93;87.65
62849;BME280;48941;49.516;8.286;2023-05-07T03:41:17;100274.28;;;13.94;88.00
62849;BME280;48941;49.516;8.286;2023-05-07T03:43:45;100272.44;;;13.94;87.29
62849;BME280;48941;49.516;8.286;2023-05-07T03:46:13;100269.06;;;13.92;87.52
62849;BME280;48941;49.516;8.286;2023-05-07T03:48:41;100275.25;;;13.93;87.60
62849;BME280;48941;49.516;8.286;2023-05-07T03:51:08;100282.31;;;13.94;87.43
62849;BME280;48941;49.516;8.286;2023-05-07T03:53:36;100278.38;;;13.88;87.16
62849;BME280;48941;49.516;8.286;2023-05-07T03:56:05;100288.22;;;13.88;87.49
62849;BME280;48941;49.516;8.286;2023-05-07T03:58:33;100292.59;;;13.89;87.25
62849;BME280;48941;49.516;8.286;2023-05-07T04:01:01;100284.84;;;13.86;87.33
62849;BME280;48941;49.516;8.286;2023-05-07T04:03:29;100294.84;;;13.84;87.21
62849;BME280;48941;49.516;8.286;2023-05-07T04:05:57;100291.47;;;13.82;87.74
62849;BME280;48941;49.516;8.286;2023-05-07T04:08:25;100293.47;;;13.80;88.12
62849;BME280;48941;49.516;8.286;2023-05-07T04:10:54;100285.59;;;13.78;87.75
62849;BME280;48941;49.516;8.286;2023-05-07T04:13:24;100292.63;;;13.79;87.72
62849;BME280;48941;49.516;8.286;2023-05-07T04:15:52;100303.47;;;13.78;87.45
62849;BME280;48941;49.516;8.286;2023-05-07T04:18:20;100305.31;;;13.77;88.09
62849;BME280;48941;49.516;8.286;2023-05-07T04:20:47;100301.66;;;13.78;88.04
62849;BME280;48941;49.516;8.286;2023-05-07T04:23:16;100297.00;;;13.80;87.92
62849;BME280;48941;49.516;8.286;2023-05-07T04:25:44;100306.72;;;13.81;87.86
62849;BME280;48941;49.516;8.286;2023-05-07T04:28:12;100302.06;;;13.83;87.91
62849;BME280;48941;49.516;8.286;2023-05-07T04:30:41;100306.72;;;13.81;87.86
62849;BME280;48941;49.516;8.286;2023-05-07T04:33:09;100309.38;;;13.81;87.79
62849;BME280;48941;49.516;8.286;2023-05-07T04:35:38;100305.19;;;13.79;88.45
62849;BME280;48941;49.516;8.286;2023-05-07T04:38:05;100299.69;;;13.80;88.51
62849;BME280;48941;49.516;8.286;2023-05-07T04:40:35;100299.50;;;13.82;88.27
62849;BME280;48941;49.516;8.286;2023-05-07T04:43:03;100295.03;;;13.82;88.13
62849;BME280;48941;49.516;8.286;2023-05-07T04:45:31;100300.06;;;13.85;87.72
62849;BME280;48941;49.516;8.286;2023-05-07T04:48:00;100299.94;;;13.87;87.97
62849;BME280;48941;49.516;8.286;2023-05-07T04:50:28;100299.78;;;13.88;87.91
62849;BME280;48941;49.516;8.286;2023-05-07T04:52:56;100301.47;;;13.89;88.28
62849;BME280;48941;49.516;8.286;2023-05-07T04:55:24;100307.25;;;13.94;87.91
62849;BME280;48941;49.516;8.286;2023-05-07T04:57:52;100303.41;;;13.97;87.81
62849;BME280;48941;49.516;8.286;2023-05-07T05:00:21;100315.50;;;14.01;88.16
62849;BME280;48941;49.516;8.286;2023-05-07T05:02:49;100315.25;;;14.04;88.41
62849;BME280;48941;49.516;8.286;2023-05-07T05:05:19;100318.28;;;14.09;88.46
62849;BME280;48941;49.516;8.286;2023-05-07T05:07:46;100319.00;;;14.11;88.90
62849;BME280;48941;49.516;8.286;2023-05-07T05:10:14;100320.25;;;14.17;89.28
62849;BME280;48941;49.516;8.286;2023-05-07T05:12:42;100324.31;;;14.21;89.11
62849;BME280;48941;49.516;8.286;2023-05-07T05:15:11;100328.22;;;14.27;88.92
62849;BME280;48941;49.516;8.286;2023-05-07T05:17:39;100327.78;;;14.31;89.43
62849;BME280;48941;49.516;8.286;2023-05-07T05:20:07;100337.75;;;14.39;89.31
62849;BME280;48941;49.516;8.286;2023-05-07T05:22:38;100336.19;;;14.46;89.30
62849;BME280;48941;49.516;8.286;2023-05-07T05:25:06;100332.22;;;14.50;89.46
62849;BME280;48941;49.516;8.286;2023-05-07T05:27:34;100334.56;;;14.53;89.25
62849;BME280;48941;49.516;8.286;2023-05-07T05:30:03;100342.91;;;14.60;89.20
62849;BME280;48941;49.516;8.286;2023-05-07T05:32:32;100343.97;;;14.67;89.67
62849;BME280;48941;49.516;8.286;2023-05-07T05:35:00;100343.53;;;14.72;89.25
62849;BME280;48941;49.516;8.286;2023-05-07T05:37:28;100349.00;;;14.80;88.84
62849;BME280;48941;49.516;8.286;2023-05-07T05:39:58;100343.03;;;14.86;88.75
62849;BME280;48941;49.516;8.286;2023-05-07T05:42:25;100343.25;;;14.93;88.22
62849;BME280;48941;49.516;8.286;2023-05-07T05:44:53;100350.69;;;14.99;88.17
62849;BME280;48941;49.516;8.286;2023-05-07T05:47:21;100346.53;;;15.05;87.74
62849;BME280;48941;49.516;8.286;2023-05-07T05:49:49;100347.63;;;15.12;87.88
62849;BME280;48941;49.516;8.286;2023-05-07T05:52:17;100348.81;;;15.18;87.16
62849;BME280;48941;49.516;8.286;2023-05-07T05:54:45;100342.00;;;15.23;87.06
62849;BME280;48941;49.516;8.286;2023-05-07T05:57:14;100350.59;;;15.27;86.34
62849;BME280;48941;49.516;8.286;2023-05-07T05:59:43;100348.81;;;15.36;86.39
62849;BME280;48941;49.516;8.286;2023-05-07T06:02:11;100354.09;;;15.45;86.43
62849;BME280;48941;49.516;8.286;2023-05-07T06:04:39;100348.78;;;15.53;86.17
62849;BME280;48941;49.516;8.286;2023-05-07T06:07:09;100342.66;;;15.61;85.85
62849;BME280;48941;49.516;8.286;2023-05-07T06:09:36;100341.03;;;15.68;85.27
62849;BME280;48941;49.516;8.286;2023-05-07T06:12:05;100337.91;;;15.73;84.93
62849;BME280;48941;49.516;8.286;2023-05-07T06:14:34;100337.94;;;15.81;84.67
62849;BME280;48941;49.516;8.286;2023-05-07T06:17:02;100339.00;;;15.88;84.86
62849;BME280;48941;49.516;8.286;2023-05-07T06:19:29;100340.06;;;15.96;84.48
62849;BME280;48941;49.516;8.286;2023-05-07T06:21:57;100350.19;;;16.02;84.13
62849;BME280;48941;49.516;8.286;2023-05-07T06:24:27;100353.34;;;16.05;83.44
62849;BME280;48941;49.516;8.286;2023-05-07T06:26:55;100343.00;;;16.10;83.92
62849;BME280;48941;49.516;8.286;2023-05-07T06:29:25;100348.75;;;16.16;83.45
62849;BME280;48941;49.516;8.286;2023-05-07T06:31:54;100343.56;;;16.22;83.23
62849;BME280;48941;49.516;8.286;2023-05-07T06:34:23;100343.06;;;16.27;83.06
62849;BME280;48941;49.516;8.286;2023-05-07T06:36:50;100341.59;;;16.32;82.80
62849;BME280;48941;49.516;8.286;2023-05-07T06:39:18;100343.47;;;16.40;83.00
62849;BME280;48941;49.516;8.286;2023-05-07T06:41:46;100343.66;;;16.47;82.14
62849;BME280;48941;49.516;8.286;2023-05-07T06:44:14;100344.53;;;16.56;82.04
62849;BME280;48941;49.516;8.286;2023-05-07T06:46:41;100347.25;;;16.64;81.91
62849;BME280;48941;49.516;8.286;2023-05-07T06:49:11;100346.75;;;16.68;81.72
62849;BME280;48941;49.516;8.286;2023-05-07T06:51:39;100345.25;;;16.74;81.16
62849;BME280;48941;49.516;8.286;2023-05-07T06:54:07;100345.44;;;16.81;80.91
62849;BME280;48941;49.516;8.286;2023-05-07T06:56:35;100343.81;;;16.88;80.98
62849;BME280;48941;49.516;8.286;2023-05-07T06:59:03;100358.94;;;16.97;80.97
62849;BME280;48941;49.516;8.286;2023-05-07T07:01:31;100358.47;;;17.02;80.83
62849;BME280;48941;49.516;8.286;2023-05-07T07:03:58;100348.91;;;17.07;80.74
62849;BME280;48941;49.516;8.286;2023-05-07T07:06:28;100357.44;;;17.11;80.17
62849;BME280;48941;49.516;8.286;2023-05-07T07:08:58;100363.03;;;17.18;79.84
62849;BME280;48941;49.516;8.286;2023-05-07T07:11:26;100360.50;;;17.24;79.15
62849;BME280;48941;49.516;8.286;2023-05-07T07:13:54;100367.91;;;17.30;79.02
62849;BME280;48941;49.516;8.286;2023-05-07T07:16:22;100365.72;;;17.34;78.68
62849;BME280;48941;49.516;8.286;2023-05-07T07:18:49;100373.97;;;17.41;78.63
62849;BME280;48941;49.516;8.286;2023-05-07T07:21:18;100369.09;;;17.44;77.93
62849;BME280;48941;49.516;8.286;2023-05-07T07:23:47;100369.91;;;17.53;77.43
62849;BME280;48941;49.516;8.286;2023-05-07T07:26:14;100375.81;;;17.57;76.95
62849;BME280;48941;49.516;8.286;2023-05-07T07:28:43;100375.13;;;17.63;77.10
62849;BME280;48941;49.516;8.286;2023-05-07T07:31:11;100386.09;;;17.69;77.04
62849;BME280;48941;49.516;8.286;2023-05-07T07:33:39;100381.03;;;17.75;76.24
62849;BME280;48941;49.516;8.286;2023-05-07T07:36:07;100378.69;;;17.80;76.77
62849;BME280;48941;49.516;8.286;2023-05-07T07:38:35;100372.25;;;17.81;76.07
62849;BME280;48941;49.516;8.286;2023-05-07T07:41:04;100372.94;;;17.83;75.85
62849;BME280;48941;49.516;8.286;2023-05-07T07:43:32;100371.59;;;17.87;75.52
62849;BME280;48941;49.516;8.286;2023-05-07T07:45:59;100372.94;;;17.91;75.96
62849;BME280;48941;49.516;8.286;2023-05-07T07:48:27;100375.97;;;17.96;75.65
62849;BME280;48941;49.516;8.286;2023-05-07T07:50:55;100370.72;;;18.03;74.84
62849;BME280;48941;49.516;8.286;2023-05-07T07:53:23;100378.66;;;18.04;73.54
62849;BME280;48941;49.516;8.286;2023-05-07T07:55:51;100378.31;;;18.07;73.40
62849;BME280;48941;49.516;8.286;2023-05-07T07:58:25;100382.34;;;18.11;73.13
62849;BME280;48941;49.516;8.286;2023-05-07T08:00:53;100386.72;;;18.13;72.45
62849;BME280;48941;49.516;8.286;2023-05-07T08:03:22;100389.41;;;18.13;72.12
62849;BME280;48941;49.516;8.286;2023-05-07T08:05:50;100383.03;;;18.14;72.23
62849;BME280;48941;49.516;8.286;2023-05-07T08:08:18;100391.94;;;18.14;71.88
62849;BME280;48941;49.516;8.286;2023-05-07T08:10:46;100386.19;;;18.17;71.83
62849;BME280;48941;49.516;8.286;2023-05-07T08:13:17;100388.38;;;18.22;72.19
62849;BME280;48941;49.516;8.286;2023-05-07T08:15:46;100390.56;;;18.26;71.88
62849;BME280;48941;49.516;8.286;2023-05-07T08:18:14;100388.34;;;18.30;71.54
62849;BME280;48941;49.516;8.286;2023-05-07T08:20:42;100385.78;;;18.37;71.69
62849;BME280;48941;49.516;8.286;2023-05-07T08:23:10;100398.13;;;18.39;71.46
62849;BME280;48941;49.516;8.286;2023-05-07T08:25:38;100390.50;;;18.43;71.10
62849;BME280;48941;49.516;8.286;2023-05-07T08:28:06;100394.53;;;18.47;70.26
62849;BME280;48941;49.516;8.286;2023-05-07T08:30:35;100398.56;;;18.51;69.79
62849;BME280;48941;49.516;8.286;2023-05-07T08:33:04;100400.75;;;18.56;69.67
62849;BME280;48941;49.516;8.286;2023-05-07T08:35:32;100410.00;;;18.61;69.02
62849;BME280;48941;49.516;8.286;2023-05-07T08:38:00;100402.03;;;18.68;69.59
62849;BME280;48941;49.516;8.286;2023-05-07T08:40:28;100397.25;;;18.78;68.61
62849;BME280;48941;49.516;8.286;2023-05-07T08:42:56;100400.59;;;18.88;68.04
62849;BME280;48941;49.516;8.286;2023-05-07T08:45:26;100398.53;;;18.99;67.51
62849;BME280;48941;49.516;8.286;2023-05-07T08:48:05;100400.16;;;19.08;67.43
62849;BME280;48941;49.516;8.286;2023-05-07T08:50:36;100396.88;;;19.21;66.75
62849;BME280;48941;49.516;8.286;2023-05-07T08:53:04;100402.19;;;19.37;65.53
62849;BME280;48941;49.516;8.286;2023-05-07T08:55:32;100393.38;;;19.58;65.11
62849;BME280;48941;49.516;8.286;2023-05-07T08:58:00;100392.59;;;19.73;64.80
62849;BME280;48941;49.516;8.286;2023-05-07T09:00:28;100393.00;;;19.84;64.55
62849;BME280;48941;49.516;8.286;2023-05-07T09:02:56;100392.47;;;19.89;63.70
62849;BME280;48941;49.516;8.286;2023-05-07T09:05:25;100385.69;;;19.93;63.32
62849;BME280;48941;49.516;8.286;2023-05-07T09:07:53;100390.63;;;20.04;61.95
62849;BME280;48941;49.516;8.286;2023-05-07T09:10:23;100393.06;;;20.14;62.18
62849;BME280;48941;49.516;8.286;2023-05-07T09:12:51;100390.72;;;20.26;61.63
62849;BME280;48941;49.516;8.286;2023-05-07T09:15:19;100387.47;;;20.45;60.82
62849;BME280;48941;49.516;8.286;2023-05-07T09:17:47;100389.94;;;20.77;59.03
62849;BME280;48941;49.516;8.286;2023-05-07T09:20:16;100390.75;;;21.07;58.26
62849;BME280;48941;49.516;8.286;2023-05-07T09:22:45;100383.91;;;21.33;57.79
62849;BME280;48941;49.516;8.286;2023-05-07T09:25:13;100385.03;;;21.60;54.78
62849;BME280;48941;49.516;8.286;2023-05-07T09:27:42;100386.00;;;21.80;53.71
62849;BME280;48941;49.516;8.286;2023-05-07T09:30:10;100382.00;;;22.04;51.89
62849;BME280;48941;49.516;8.286;2023-05-07T09:32:38;100381.19;;;22.32;51.08
62849;BME280;48941;49.516;8.286;2023-05-07T09:35:14;100388.41;;;22.53;49.28
62849;BME280;48941;49.516;8.286;2023-05-07T09:37:42;100386.59;;;22.74;49.79
62849;BME280;48941;49.516;8.286;2023-05-07T09:40:21;100388.50;;;22.86;49.92
62849;BME280;48941;49.516;8.286;2023-05-07T09:42:49;100386.22;;;22.83;48.69
62849;BME280;48941;49.516;8.286;2023-05-07T09:45:21;100382.19;;;22.66;49.56
62849;BME280;48941;49.516;8.286;2023-05-07T09:47:53;100384.25;;;22.64;50.18
62849;BME280;48941;49.516;8.286;2023-05-07T09:50:23;100385.50;;;22.61;50.85
62849;BME280;48941;49.516;8.286;2023-05-07T09:52:54;100375.56;;;22.82;50.09
62849;BME280;48941;49.516;8.286;2023-05-07T09:55:23;100377.09;;;23.04;50.10
62849;BME280;48941;49.516;8.286;2023-05-07T09:57:52;100376.09;;;23.12;48.93
62849;BME280;48941;49.516;8.286;2023-05-07T10:00:21;100383.41;;;23.18;48.19
62849;BME280;48941;49.516;8.286;2023-05-07T10:02:50;100366.31;;;23.38;46.87
62849;BME280;48941;49.516;8.286;2023-05-07T10:05:19;100363.78;;;23.56;47.20
62849;BME280;48941;49.516;8.286;2023-05-07T10:07:48;100367.34;;;23.70;46.12
62849;BME280;48941;49.516;8.286;2023-05-07T10:10:17;100366.34;;;23.91;45.30
62849;BME280;48941;49.516;8.286;2023-05-07T10:12:47;100359.59;;;24.00;45.42
62849;BME280;48941;49.516;8.286;2023-05-07T10:15:15;100352.69;;;24.24;45.04
62849;BME280;48941;49.516;8.286;2023-05-07T10:17:42;100352.97;;;24.48;45.06
62849;BME280;48941;49.516;8.286;2023-05-07T10:20:10;100352.31;;;24.73;43.66
62849;BME280;48941;49.516;8.286;2023-05-07T10:22:41;100355.75;;;24.93;43.51
62849;BME280;48941;49.516;8.286;2023-05-07T10:25:16;100356.75;;;24.99;42.95
62849;BME280;48941;49.516;8.286;2023-05-07T10:27:47;100358.53;;;24.80;43.75
62849;BME280;48941;49.516;8.286;2023-05-07T10:30:24;100357.97;;;24.71;43.85
62849;BME280;48941;49.516;8.286;2023-05-07T10:32:59;100357.28;;;24.82;43.56
62849;BME280;48941;49.516;8.286;2023-05-07T10:35:39;100354.25;;;24.97;44.03
62849;BME280;48941;49.516;8.286;2023-05-07T10:38:08;100347.56;;;24.93;43.44
62849;BME280;48941;49.516;8.286;2023-05-07T10:40:36;100353.44;;;24.90;43.63
62849;BME280;48941;49.516;8.286;2023-05-07T10:43:05;100351.13;;;24.94;43.48
62849;BME280;48941;49.516;8.286;2023-05-07T10:45:36;100355.44;;;25.08;44.09
62849;BME280;48941;49.516;8.286;2023-05-07T10:48:09;100354.53;;;25.21;42.39
62849;BME280;48941;49.516;8.286;2023-05-07T10:51:18;100346.94;;;25.30;42.59
62849;BME280;48941;49.516;8.286;2023-05-07T10:53:47;100348.78;;;25.36;41.27
62849;BME280;48941;49.516;8.286;2023-05-07T10:56:25;100344.84;;;25.57;41.54
62849;BME280;48941;49.516;8.286;2023-05-07T10:59:30;100342.84;;;25.71;41.53
62849;BME280;48941;49.516;8.286;2023-05-07T11:01:59;100340.34;;;25.88;40.89
62849;BME280;48941;49.516;8.286;2023-05-07T11:04:29;100325.31;;;26.03;40.39
62849;BME280;48941;49.516;8.286;2023-05-07T11:10:08;100326.38;;;26.39;40.63
62849;BME280;48941;49.516;8.286;2023-05-07T11:12:54;100323.53;;;26.34;40.58
62849;BME280;48941;49.516;8.286;2023-05-07T11:15:36;100322.16;;;26.25;41.46
62849;BME280;48941;49.516;8.286;2023-05-07T11:18:04;100323.75;;;26.33;41.12
62849;BME280;48941;49.516;8.286;2023-05-07T11:20:47;100324.13;;;26.36;41.48
62849;BME280;48941;49.516;8.286;2023-05-07T11:26:03;100322.13;;;26.43;40.90
62849;BME280;48941;49.516;8.286;2023-05-07T11:28:36;100326.97;;;26.60;40.55
62849;BME280;48941;49.516;8.286;2023-05-07T11:31:06;100322.66;;;26.71;39.61
62849;BME280;48941;49.516;8.286;2023-05-07T11:33:35;100325.16;;;26.72;39.47
62849;BME280;48941;49.516;8.286;2023-05-07T11:36:04;100326.81;;;26.73;39.46
62849;BME280;48941;49.516;8.286;2023-05-07T11:38:35;100323.69;;;26.88;39.18
62849;BME280;48941;49.516;8.286;2023-05-07T11:41:04;100313.63;;;27.00;39.53
62849;BME280;48941;49.516;8.286;2023-05-07T11:43:32;100309.75;;;26.90;39.74
62849;BME280;48941;49.516;8.286;2023-05-07T11:46:08;100301.25;;;27.10;39.52
62849;BME280;48941;49.516;8.286;2023-05-07T11:48:36;100298.72;;;27.27;39.30
62849;BME280;48941;49.516;8.286;2023-05-07T11:51:05;100297.19;;;27.31;38.36
62849;BME280;48941;49.516;8.286;2023-05-07T11:53:36;100300.03;;;27.36;37.77
62849;BME280;48941;49.516;8.286;2023-05-07T11:56:08;100290.88;;;27.54;37.26
62849;BME280;48941;49.516;8.286;2023-05-07T11:58:37;100289.81;;;27.78;37.93
62849;BME280;48941;49.516;8.286;2023-05-07T12:01:07;100286.97;;;27.97;37.62
62849;BME280;48941;49.516;8.286;2023-05-07T12:03:36;100293.53;;;27.96;36.97
62849;BME280;48941;49.516;8.286;2023-05-07T12:06:06;100292.44;;;28.09;37.59
62849;BME280;48941;49.516;8.286;2023-05-07T12:08:36;100307.03;;;28.26;36.52
62849;BME280;48941;49.516;8.286;2023-05-07T12:11:07;100297.00;;;28.32;36.30
62849;BME280;48941;49.516;8.286;2023-05-07T12:13:36;100295.50;;;28.24;36.23
62849;BME280;48941;49.516;8.286;2023-05-07T12:16:06;100293.81;;;28.23;36.44
62849;BME280;48941;49.516;8.286;2023-05-07T12:18:35;100293.47;;;28.19;37.02
62849;BME280;48941;49.516;8.286;2023-05-07T12:21:04;100291.09;;;28.11;36.35
62849;BME280;48941;49.516;8.286;2023-05-07T12:23:33;100282.31;;;27.97;36.84
62849;BME280;48941;49.516;8.286;2023-05-07T12:26:02;100282.94;;;27.88;36.75
62849;BME280;48941;49.516;8.286;2023-05-07T12:28:36;100287.22;;;27.60;36.22
62849;BME280;48941;49.516;8.286;2023-05-07T12:31:07;100287.09;;;27.43;37.81
62849;BME280;48941;49.516;8.286;2023-05-07T12:33:35;100294.91;;;27.28;38.04
62849;BME280;48941;49.516;8.286;2023-05-07T12:36:06;100293.78;;;27.05;38.54
62849;BME280;48941;49.516;8.286;2023-05-07T12:38:35;100292.91;;;26.93;38.81
62849;BME280;48941;49.516;8.286;2023-05-07T12:41:04;100290.59;;;26.78;39.24
62849;BME280;48941;49.516;8.286;2023-05-07T12:43:33;100282.13;;;26.68;39.18
62849;BME280;48941;49.516;8.286;2023-05-07T12:46:04;100279.81;;;26.53;40.27
62849;BME280;48941;49.516;8.286;2023-05-07T12:48:36;100277.72;;;26.36;41.14
62849;BME280;48941;49.516;8.286;2023-05-07T12:51:05;100282.88;;;26.26;41.33
62849;BME280;48941;49.516;8.286;2023-05-07T12:53:33;100279.00;;;26.15;41.45
62849;BME280;48941;49.516;8.286;2023-05-07T12:56:05;100274.56;;;26.02;41.59
62849;BME280;48941;49.516;8.286;2023-05-07T12:58:34;100275.09;;;25.86;42.23
62849;BME280;48941;49.516;8.286;2023-05-07T13:01:04;100276.09;;;25.73;42.62
62849;BME280;48941;49.516;8.286;2023-05-07T13:03:35;100279.78;;;25.60;43.50
62849;BME280;48941;49.516;8.286;2023-05-07T13:06:05;100269.69;;;25.42;44.55